Terminal Aerodrome Forecast
Issued by NWS Upton, NY

Home | Current Version | Previous Version | Text Only | Print | Product List | Glossary On
Versions: 1 2 3 4 5 6 7 8 9 10 11 12 13 14 15 16 17 18 19 20 21 22 23 24 25 26 27 28 29 30
503
FTUS41 KOKX 062101 AAB
TAFEWR
TAF AMD
KEWR 062101Z 0621/0724 09010KT P6SM FEW035 BKN100 OVC200
     FM062300 10011G18KT 5SM -RA BKN030 OVC070
     FM070100 08009G16KT 3SM -RA BR BKN012 OVC020
     FM070500 05009G16KT 3SM -RADZ BR BKN007 OVC010
     FM071200 06006KT 3SM -DZ BR BKN007 OVC010
     FM071700 VRB05KT 6SM BR BKN010 OVC025
     FM072000 28006KT P6SM SCT025 BKN050=

USA.gov is the U.S. government's official web portal to all federal, state and local government web resources and services.